createdAt,value
2022-09-20T00:01:35.014Z,0
2022-09-20T00:03:18.706Z,0
2022-09-20T00:05:02.412Z,0
2022-09-20T00:06:46.115Z,0
2022-09-20T00:08:29.823Z,0
2022-09-20T00:10:13.509Z,0
2022-09-20T00:11:57.232Z,0
2022-09-20T00:13:40.921Z,0
2022-09-20T00:15:24.630Z,0
2022-09-20T00:17:08.331Z,0
2022-09-20T00:18:52.048Z,0
2022-09-20T00:20:35.750Z,1
2022-09-20T00:22:19.457Z,0
2022-09-20T00:24:03.143Z,0
2022-09-20T00:25:46.840Z,0
2022-09-20T00:27:30.545Z,0
2022-09-20T00:29:14.246Z,1
2022-09-20T00:30:57.928Z,1
2022-09-20T00:32:41.639Z,0
2022-09-20T00:34:25.353Z,0
2022-09-20T00:36:09.053Z,0
2022-09-20T00:37:52.734Z,0
2022-09-20T00:39:36.452Z,0
2022-09-20T00:41:20.144Z,0
2022-09-20T00:43:03.866Z,0
2022-09-20T00:44:47.531Z,1
2022-09-20T00:46:31.241Z,1
2022-09-20T00:49:58.664Z,1
2022-09-20T00:51:42.346Z,0
2022-09-20T00:53:26.048Z,0
2022-09-20T00:55:09.755Z,0
2022-09-20T00:56:53.457Z,1
2022-09-20T00:58:37.154Z,0
2022-09-20T01:00:20.882Z,0
2022-09-20T01:02:04.577Z,0
2022-09-20T01:03:48.288Z,0
2022-09-20T01:05:31.978Z,1
2022-09-20T01:07:15.714Z,0
2022-09-20T01:08:59.398Z,1
2022-09-20T01:10:43.094Z,0
2022-09-20T01:12:26.816Z,1
2022-09-20T01:14:10.484Z,0
2022-09-20T01:15:54.187Z,0
2022-09-20T01:17:37.894Z,0
2022-09-20T01:19:21.616Z,1
2022-09-20T01:21:05.300Z,0
2022-09-20T01:22:49.067Z,1
2022-09-20T01:24:32.740Z,0
2022-09-20T01:26:16.407Z,0
2022-09-20T01:28:00.149Z,0
2022-09-20T01:29:43.806Z,0
2022-09-20T01:31:27.498Z,0
2022-09-20T01:33:11.219Z,1
2022-09-20T01:34:54.907Z,0
2022-09-20T01:36:38.614Z,1
2022-09-20T01:38:22.318Z,0
2022-09-20T01:40:06.017Z,0
2022-09-20T01:41:49.739Z,0
2022-09-20T01:43:33.412Z,0
2022-09-20T01:45:17.130Z,0
2022-09-20T01:47:00.850Z,0
2022-09-20T01:48:44.543Z,0
2022-09-20T01:50:28.216Z,0
2022-09-20T01:52:11.931Z,0
2022-09-20T01:53:55.640Z,1
2022-09-20T01:55:39.343Z,0
2022-09-20T01:57:23.024Z,0
2022-09-20T01:59:06.733Z,0
2022-09-20T02:00:50.430Z,0
2022-09-20T02:02:34.144Z,0
2022-09-20T02:04:17.871Z,0
2022-09-20T02:06:01.554Z,0
2022-09-20T02:07:45.244Z,0
2022-09-20T02:09:28.978Z,0
2022-09-20T02:11:12.659Z,1
2022-09-20T02:12:56.348Z,0
2022-09-20T02:14:40.055Z,0
2022-09-20T02:16:23.758Z,0
2022-09-20T02:18:07.468Z,0
2022-09-20T02:19:51.155Z,0
2022-09-20T02:21:34.856Z,1
2022-09-20T02:23:18.561Z,0
2022-09-20T02:25:02.278Z,1
2022-09-20T02:26:45.946Z,0
2022-09-20T02:28:29.663Z,0
2022-09-20T02:30:13.362Z,0
2022-09-20T02:31:57.092Z,0
2022-09-20T02:33:40.770Z,0
2022-09-20T02:35:24.457Z,0
2022-09-20T02:37:08.173Z,0
2022-09-20T02:38:51.871Z,1
2022-09-20T02:40:35.573Z,0
2022-09-20T02:42:19.283Z,0
2022-09-20T02:44:02.978Z,0
2022-09-20T02:45:46.689Z,0
2022-09-20T02:47:30.390Z,0
2022-09-20T02:49:14.081Z,0
2022-09-20T02:50:57.804Z,0
2022-09-20T02:52:41.497Z,0
2022-09-20T02:54:25.199Z,0
2022-09-20T02:56:08.893Z,0
2022-09-20T02:57:52.613Z,0
2022-09-20T02:59:36.311Z,0
2022-09-20T03:01:20.009Z,0
2022-09-20T03:03:03.705Z,0
2022-09-20T03:04:47.415Z,0
2022-09-20T03:06:31.116Z,1
2022-09-20T03:08:14.817Z,0
2022-09-20T03:09:58.513Z,0
2022-09-20T03:11:42.204Z,0
2022-09-20T03:13:25.930Z,1
2022-09-20T03:15:09.624Z,0
2022-09-20T03:16:53.313Z,0
2022-09-20T03:18:37.026Z,0
2022-09-20T03:20:20.735Z,0
2022-09-20T03:22:04.440Z,0
2022-09-20T03:23:48.142Z,0
2022-09-20T03:25:31.843Z,1
2022-09-20T03:27:15.538Z,0
2022-09-20T03:28:59.243Z,0
2022-09-20T03:30:42.946Z,0
2022-09-20T03:32:26.643Z,0
2022-09-20T03:34:10.344Z,0
2022-09-20T03:35:54.060Z,0
2022-09-20T03:37:37.762Z,0
2022-09-20T03:39:21.446Z,0
2022-09-20T03:41:05.161Z,0
2022-09-20T03:42:48.890Z,0
2022-09-20T03:44:32.582Z,0
2022-09-20T03:46:16.252Z,0
2022-09-20T03:47:59.968Z,0
2022-09-20T03:49:43.675Z,0
2022-09-20T03:51:27.371Z,1
2022-09-20T03:53:11.080Z,0
2022-09-20T03:54:54.778Z,0
2022-09-20T03:56:38.491Z,1
2022-09-20T03:58:22.177Z,0
2022-09-20T04:00:05.900Z,0
2022-09-20T04:01:49.594Z,0
2022-09-20T04:03:33.289Z,0
2022-09-20T04:05:16.981Z,0
2022-09-20T04:07:00.687Z,0
2022-09-20T04:08:44.377Z,0
2022-09-20T04:10:28.078Z,0
2022-09-20T04:12:11.789Z,1
2022-09-20T04:13:55.493Z,0
2022-09-20T04:17:22.900Z,0
2022-09-20T04:19:06.606Z,0
2022-09-20T04:20:50.303Z,0
2022-09-20T04:22:34.010Z,1
2022-09-20T04:24:17.706Z,0
2022-09-20T04:26:01.423Z,0
2022-09-20T04:27:45.155Z,0
2022-09-20T04:29:28.845Z,0
2022-09-20T04:31:12.517Z,0
2022-09-20T04:32:56.216Z,0
2022-09-20T04:34:39.940Z,0
2022-09-20T04:36:23.633Z,0
2022-09-20T04:38:07.329Z,0
2022-09-20T04:39:51.078Z,0
2022-09-20T04:41:34.750Z,0
2022-09-20T04:43:18.431Z,0
2022-09-20T04:45:02.136Z,0
2022-09-20T04:46:45.843Z,0
2022-09-20T04:48:29.546Z,1
2022-09-20T04:50:13.240Z,0
2022-09-20T04:51:56.936Z,0
2022-09-20T04:53:40.638Z,1
2022-09-20T04:55:24.366Z,0
2022-09-20T04:57:08.049Z,0
2022-09-20T04:58:51.789Z,1
2022-09-20T05:00:35.455Z,0
2022-09-20T05:02:19.165Z,1
2022-09-20T05:04:02.869Z,0
2022-09-20T05:05:46.576Z,1
2022-09-20T05:07:30.268Z,0
2022-09-20T05:09:13.979Z,2
2022-09-20T05:10:57.682Z,1
2022-09-20T05:12:41.372Z,2
2022-09-20T05:14:25.059Z,2
2022-09-20T05:16:08.766Z,2
2022-09-20T05:17:52.458Z,2
2022-09-20T05:19:36.176Z,3
2022-09-20T05:21:19.877Z,4
2022-09-20T05:23:03.574Z,6
2022-09-20T05:24:47.274Z,6
2022-09-20T05:26:30.977Z,5
2022-09-20T05:28:14.679Z,4
2022-09-20T05:29:58.371Z,5
2022-09-20T05:31:42.079Z,6
2022-09-20T05:33:25.776Z,7
2022-09-20T05:35:09.480Z,7
2022-09-20T05:36:53.167Z,7
2022-09-20T05:38:36.878Z,6
2022-09-20T05:40:20.586Z,7
2022-09-20T05:42:04.280Z,8
2022-09-20T05:43:47.990Z,10
2022-09-20T05:45:31.696Z,10
2022-09-20T05:47:15.381Z,8
2022-09-20T05:48:59.089Z,8
2022-09-20T05:50:42.806Z,8
2022-09-20T05:52:26.487Z,9
2022-09-20T05:54:10.192Z,10
2022-09-20T05:55:53.900Z,13
2022-09-20T05:57:37.609Z,21
2022-09-20T05:59:21.438Z,23
2022-09-20T06:01:05.044Z,22
2022-09-20T06:02:48.707Z,21
2022-09-20T06:04:32.397Z,16
2022-09-20T06:06:16.138Z,17
2022-09-20T06:07:59.853Z,17
2022-09-20T06:09:43.547Z,19
2022-09-20T06:11:27.216Z,23
2022-09-20T06:13:10.946Z,26
2022-09-20T06:14:54.700Z,28
2022-09-20T06:16:38.311Z,33
2022-09-20T06:18:22.052Z,34
2022-09-20T06:20:05.713Z,40
2022-09-20T06:21:49.400Z,44
2022-09-20T06:23:33.107Z,42
2022-09-20T06:25:16.838Z,56
2022-09-20T06:27:00.523Z,62
2022-09-20T06:28:44.230Z,47
2022-09-20T06:30:27.924Z,43
2022-09-20T06:32:11.619Z,42
2022-09-20T06:33:55.335Z,46
2022-09-20T06:35:39.021Z,46
2022-09-20T06:37:22.725Z,48
2022-09-20T06:39:06.430Z,774
2022-09-20T06:40:50.116Z,774
2022-09-20T06:42:33.830Z,774
2022-09-20T06:44:17.531Z,774
2022-09-20T06:46:01.249Z,774
2022-09-20T06:47:44.939Z,775
2022-09-20T06:49:28.641Z,775
2022-09-20T06:51:12.338Z,773
2022-09-20T06:52:56.038Z,775
2022-09-20T06:54:39.757Z,774
2022-09-20T06:56:23.457Z,774
2022-09-20T06:58:07.159Z,775
2022-09-20T06:59:50.848Z,775
2022-09-20T07:01:34.565Z,775
2022-09-20T07:03:18.272Z,775
2022-09-20T07:05:01.958Z,775
2022-09-20T07:06:45.644Z,775
2022-09-20T07:08:29.361Z,775
2022-09-20T07:10:13.084Z,775
2022-09-20T07:11:56.887Z,776
2022-09-20T07:13:40.472Z,776
2022-09-20T07:15:24.171Z,775
2022-09-20T07:17:07.866Z,775
2022-09-20T07:18:51.581Z,775
2022-09-20T07:20:35.323Z,775
2022-09-20T07:22:18.955Z,774
2022-09-20T07:24:02.679Z,775
2022-09-20T07:25:46.368Z,775
2022-09-20T07:27:30.088Z,775
2022-09-20T07:29:13.773Z,775
2022-09-20T07:30:57.461Z,775
2022-09-20T07:32:41.178Z,775
2022-09-20T07:34:24.889Z,775
2022-09-20T07:36:08.616Z,775
2022-09-20T07:37:52.295Z,775
2022-09-20T07:39:35.991Z,776
2022-09-20T07:41:19.692Z,775
2022-09-20T07:43:03.416Z,773
2022-09-20T07:44:47.087Z,775
2022-09-20T07:46:30.796Z,776
2022-09-20T07:48:14.494Z,776
2022-09-20T07:49:58.216Z,774
2022-09-20T07:51:41.899Z,775
2022-09-20T07:53:25.590Z,775
2022-09-20T07:55:09.311Z,775
2022-09-20T07:56:53.005Z,775
2022-09-20T07:58:36.712Z,775
2022-09-20T08:02:04.118Z,775
2022-09-20T08:03:47.806Z,775
2022-09-20T08:05:31.521Z,776
2022-09-20T08:07:15.218Z,776
2022-09-20T08:10:42.628Z,776
2022-09-20T08:12:26.328Z,776
2022-09-20T08:14:10.035Z,776
2022-09-20T08:15:53.729Z,777
2022-09-20T08:17:37.430Z,777
2022-09-20T08:19:21.143Z,775
2022-09-20T08:21:04.847Z,776
2022-09-20T08:22:48.549Z,777
2022-09-20T08:24:32.236Z,776
2022-09-20T08:26:15.942Z,775
2022-09-20T08:27:59.668Z,777
2022-09-20T08:29:43.350Z,777
2022-09-20T08:31:27.072Z,777
2022-09-20T08:33:10.773Z,776
2022-09-20T08:34:54.461Z,777
2022-09-20T08:36:38.179Z,777
2022-09-20T08:38:21.872Z,777
2022-09-20T08:40:05.587Z,776
2022-09-20T08:41:49.282Z,778
2022-09-20T08:43:32.990Z,777
2022-09-20T08:45:16.697Z,777
2022-09-20T08:47:00.406Z,775
2022-09-20T08:48:44.098Z,777
2022-09-20T08:50:27.795Z,778
2022-09-20T08:52:11.500Z,777
2022-09-20T08:53:55.220Z,775
2022-09-20T08:55:38.906Z,777
2022-09-20T08:57:22.602Z,777
2022-09-20T08:59:06.312Z,777
2022-09-20T09:00:50.026Z,777
2022-09-20T09:02:33.725Z,777
2022-09-20T09:04:17.421Z,776
2022-09-20T09:06:01.120Z,777
2022-09-20T09:07:44.834Z,777
2022-09-20T09:09:28.555Z,777
2022-09-20T09:11:12.238Z,776
2022-09-20T09:12:55.938Z,777
2022-09-20T09:14:39.636Z,775
2022-09-20T09:16:23.334Z,777
2022-09-20T09:18:07.028Z,777
2022-09-20T09:19:50.742Z,777
2022-09-20T09:21:34.452Z,777
2022-09-20T09:23:18.125Z,777
2022-09-20T09:25:01.836Z,777
2022-09-20T09:26:45.555Z,778
2022-09-20T09:28:29.270Z,777
2022-09-20T09:30:12.936Z,778
2022-09-20T09:31:56.669Z,777
2022-09-20T09:33:40.348Z,777
2022-09-20T09:35:24.060Z,777
2022-09-20T09:37:07.761Z,777
2022-09-20T09:38:51.462Z,778
2022-09-20T09:40:35.168Z,777
2022-09-20T09:42:18.876Z,777
2022-09-20T09:44:02.565Z,777
2022-09-20T09:45:46.284Z,777
2022-09-20T09:47:30.025Z,777
2022-09-20T09:49:13.694Z,778
2022-09-20T09:50:57.384Z,775
2022-09-20T09:52:41.170Z,777
2022-09-20T09:54:24.797Z,777
2022-09-20T09:56:08.595Z,777
2022-09-20T09:57:52.221Z,778
2022-09-20T09:59:36.042Z,777
2022-09-20T10:01:19.665Z,777
2022-09-20T10:03:03.323Z,777
2022-09-20T10:04:47.144Z,777
2022-09-20T10:06:30.713Z,777
2022-09-20T10:08:14.410Z,778
2022-09-20T10:09:58.124Z,777
2022-09-20T10:11:41.823Z,777
2022-09-20T10:13:25.515Z,775
2022-09-20T10:15:09.217Z,777
2022-09-20T10:16:52.942Z,777
2022-09-20T10:18:36.634Z,776
2022-09-20T10:20:20.339Z,777
2022-09-20T10:22:04.036Z,777
2022-09-20T10:23:47.741Z,777
2022-09-20T10:25:31.443Z,777
2022-09-20T10:27:15.162Z,777
2022-09-20T10:28:58.859Z,778
2022-09-20T10:30:42.558Z,778
2022-09-20T10:32:26.342Z,777
2022-09-20T10:34:09.963Z,777
2022-09-20T10:35:53.694Z,778
2022-09-20T10:37:37.377Z,777
2022-09-20T10:39:21.081Z,778
2022-09-20T10:41:04.789Z,777
2022-09-20T10:42:48.500Z,777
2022-09-20T10:44:32.198Z,776
2022-09-20T10:46:15.890Z,777
2022-09-20T10:47:59.595Z,774
2022-09-20T10:49:43.435Z,776
2022-09-20T10:51:27.116Z,777
2022-09-20T10:53:10.776Z,777
2022-09-20T10:54:54.457Z,777
2022-09-20T10:56:38.103Z,777
2022-09-20T10:58:21.807Z,777
2022-09-20T11:00:05.530Z,777
2022-09-20T11:01:49.210Z,777
2022-09-20T11:03:32.950Z,777
2022-09-20T11:05:16.616Z,777
2022-09-20T11:07:00.342Z,777
2022-09-20T11:08:44.028Z,777
2022-09-20T11:10:27.725Z,777
2022-09-20T11:12:11.430Z,777
2022-09-20T11:13:55.145Z,777
2022-09-20T11:15:38.843Z,777
2022-09-20T11:17:22.558Z,778
2022-09-20T11:19:06.231Z,777
2022-09-20T11:20:49.945Z,777
2022-09-20T11:22:33.653Z,776
2022-09-20T11:24:17.344Z,777
2022-09-20T11:26:01.048Z,777
2022-09-20T11:27:44.767Z,777
2022-09-20T11:29:28.462Z,777
2022-09-20T11:31:12.179Z,775
2022-09-20T11:32:55.867Z,776
2022-09-20T11:34:39.577Z,777
2022-09-20T11:36:23.279Z,777
2022-09-20T11:38:06.993Z,774
2022-09-20T11:39:50.757Z,777
2022-09-20T11:41:34.390Z,777
2022-09-20T11:43:18.086Z,777
2022-09-20T11:45:01.792Z,774
2022-09-20T11:46:45.495Z,777
2022-09-20T11:48:29.211Z,777
2022-09-20T11:50:12.906Z,777
2022-09-20T11:51:56.627Z,777
2022-09-20T11:53:40.322Z,778
2022-09-20T11:55:24.023Z,777
2022-09-20T11:57:07.717Z,777
2022-09-20T11:58:51.420Z,777
2022-09-20T12:00:35.141Z,778
2022-09-20T12:02:18.837Z,777
2022-09-20T12:04:02.541Z,777
2022-09-20T12:05:46.226Z,778
2022-09-20T12:07:29.925Z,776
2022-09-20T12:09:13.790Z,778
2022-09-20T12:10:57.337Z,777
2022-09-20T12:12:41.037Z,777
2022-09-20T12:14:24.747Z,777
2022-09-20T12:16:08.446Z,777
2022-09-20T12:17:52.163Z,777
2022-09-20T12:19:35.857Z,776
2022-09-20T12:21:19.555Z,777
2022-09-20T12:23:03.267Z,777
2022-09-20T12:24:46.962Z,777
2022-09-20T12:26:30.647Z,777
2022-09-20T12:28:14.361Z,777
2022-09-20T12:29:58.071Z,776
2022-09-20T12:31:41.766Z,777
2022-09-20T12:33:25.456Z,777
2022-09-20T12:35:09.331Z,775
2022-09-20T12:36:52.877Z,777
2022-09-20T12:38:36.584Z,777
2022-09-20T12:40:20.268Z,776
2022-09-20T12:42:03.976Z,777
2022-09-20T12:43:47.671Z,777
2022-09-20T12:45:31.381Z,778
2022-09-20T12:47:15.108Z,777
2022-09-20T12:50:42.482Z,777
2022-09-20T12:52:26.197Z,777
2022-09-20T12:54:09.882Z,778
2022-09-20T12:55:53.586Z,777
2022-09-20T12:59:20.991Z,777
2022-09-20T13:01:04.799Z,777
2022-09-20T13:02:48.395Z,777
2022-09-20T13:04:32.098Z,777
2022-09-20T13:06:15.828Z,774
2022-09-20T13:07:59.503Z,777
2022-09-20T13:11:26.984Z,776
2022-09-20T13:13:10.618Z,775
2022-09-20T13:14:54.402Z,777
2022-09-20T13:16:38.179Z,777
2022-09-20T13:18:21.728Z,776
2022-09-20T13:20:05.437Z,776
2022-09-20T13:21:49.128Z,776
2022-09-20T13:23:32.842Z,777
2022-09-20T13:25:16.542Z,777
2022-09-20T13:27:00.248Z,776
2022-09-20T13:28:43.939Z,777
2022-09-20T13:30:27.662Z,776
2022-09-20T13:32:11.360Z,777
2022-09-20T13:33:55.072Z,776
2022-09-20T13:35:38.769Z,777
2022-09-20T13:37:22.463Z,776
2022-09-20T13:39:06.175Z,776
2022-09-20T13:40:49.875Z,776
2022-09-20T13:42:33.595Z,777
2022-09-20T13:44:17.287Z,777
2022-09-20T13:46:00.973Z,776
2022-09-20T13:47:44.676Z,776
2022-09-20T13:49:28.400Z,777
2022-09-20T13:51:12.082Z,777
2022-09-20T13:52:55.888Z,777
2022-09-20T13:54:39.504Z,777
2022-09-20T13:56:23.215Z,776
2022-09-20T13:58:06.905Z,776
2022-09-20T13:59:50.615Z,776
2022-09-20T14:01:34.352Z,776
2022-09-20T14:03:18.008Z,776
2022-09-20T14:05:01.708Z,776
2022-09-20T14:06:45.414Z,776
2022-09-20T14:08:29.125Z,776
2022-09-20T14:10:12.831Z,776
2022-09-20T14:11:56.533Z,775
2022-09-20T14:13:40.226Z,776
2022-09-20T14:15:23.916Z,698
2022-09-20T14:17:07.624Z,776
2022-09-20T14:18:51.338Z,776
2022-09-20T14:20:35.035Z,776
2022-09-20T14:22:18.723Z,776
2022-09-20T14:24:02.430Z,776
2022-09-20T14:25:46.141Z,776
2022-09-20T14:27:29.841Z,776
2022-09-20T14:29:13.521Z,776
2022-09-20T14:30:57.228Z,776
2022-09-20T14:32:40.955Z,776
2022-09-20T14:34:24.644Z,777
2022-09-20T14:36:08.359Z,776
2022-09-20T14:37:52.035Z,664
2022-09-20T14:39:35.741Z,507
2022-09-20T14:41:19.454Z,493
2022-09-20T14:43:03.131Z,576
2022-09-20T14:44:46.869Z,722
2022-09-20T14:46:30.552Z,775
2022-09-20T14:48:14.287Z,776
2022-09-20T14:49:57.949Z,776
2022-09-20T14:51:41.663Z,776
2022-09-20T14:53:25.361Z,775
2022-09-20T14:55:09.067Z,775
2022-09-20T14:56:52.761Z,776
2022-09-20T14:58:36.455Z,776
2022-09-20T15:00:20.183Z,776
2022-09-20T15:02:03.952Z,776
2022-09-20T15:03:47.585Z,773
2022-09-20T15:05:31.280Z,775
2022-09-20T15:07:14.982Z,776
2022-09-20T15:08:58.682Z,776
2022-09-20T15:10:42.389Z,775
2022-09-20T15:12:26.109Z,775
2022-09-20T15:14:09.792Z,775
2022-09-20T15:15:53.486Z,776
2022-09-20T15:17:37.192Z,775
2022-09-20T15:19:20.955Z,776
2022-09-20T15:21:04.611Z,776
2022-09-20T15:22:48.299Z,776
2022-09-20T15:24:32.015Z,776
2022-09-20T15:26:15.696Z,775
2022-09-20T15:27:59.391Z,774
2022-09-20T15:29:43.085Z,776
2022-09-20T15:31:26.933Z,775
2022-09-20T15:33:10.487Z,776
2022-09-20T15:34:54.184Z,776
2022-09-20T15:36:37.902Z,775
2022-09-20T15:38:21.617Z,775
2022-09-20T15:40:05.294Z,775
2022-09-20T15:43:32.708Z,775
2022-09-20T15:45:16.421Z,776
2022-09-20T15:47:00.120Z,774
2022-09-20T15:48:43.816Z,776
2022-09-20T15:50:27.519Z,776
2022-09-20T15:52:11.253Z,361
2022-09-20T15:53:54.939Z,353
2022-09-20T15:55:38.616Z,481
2022-09-20T15:57:22.323Z,491
2022-09-20T15:59:06.026Z,487
2022-09-20T16:00:49.741Z,479
2022-09-20T16:02:33.429Z,469
2022-09-20T16:04:17.136Z,460
2022-09-20T16:06:00.826Z,448
2022-09-20T16:07:44.557Z,435
2022-09-20T16:09:28.236Z,421
2022-09-20T16:11:11.933Z,407
2022-09-20T16:12:55.622Z,396
2022-09-20T16:14:39.368Z,384
2022-09-20T16:16:23.023Z,373
2022-09-20T16:18:06.728Z,365
2022-09-20T16:19:50.449Z,361
2022-09-20T16:21:34.144Z,359
2022-09-20T16:23:17.829Z,356
2022-09-20T16:25:01.523Z,349
2022-09-20T16:26:45.235Z,339
2022-09-20T16:28:28.951Z,333
2022-09-20T16:30:12.637Z,327
2022-09-20T16:31:56.342Z,317
2022-09-20T16:33:40.081Z,305
2022-09-20T16:35:23.741Z,292
2022-09-20T16:37:07.451Z,282
2022-09-20T16:38:51.171Z,275
2022-09-20T16:40:34.870Z,267
2022-09-20T16:42:18.630Z,247
2022-09-20T16:44:02.265Z,225
2022-09-20T16:45:45.972Z,213
2022-09-20T16:47:29.666Z,197
2022-09-20T16:49:13.378Z,185
2022-09-20T16:50:57.095Z,175
2022-09-20T16:52:40.791Z,167
2022-09-20T16:54:24.503Z,160
2022-09-20T16:56:08.194Z,155
2022-09-20T16:57:51.886Z,148
2022-09-20T16:59:35.587Z,152
2022-09-20T17:01:19.278Z,148
2022-09-20T17:03:02.996Z,143
2022-09-20T17:04:46.711Z,138
2022-09-20T17:06:30.383Z,118
2022-09-20T17:08:14.079Z,114
2022-09-20T17:09:57.797Z,111
2022-09-20T17:11:41.495Z,108
2022-09-20T17:13:25.182Z,103
2022-09-20T17:15:08.894Z,94
2022-09-20T17:16:52.611Z,78
2022-09-20T17:18:36.345Z,67
2022-09-20T17:20:20.006Z,56
2022-09-20T17:22:03.719Z,47
2022-09-20T17:23:47.415Z,38
2022-09-20T17:25:31.133Z,775
2022-09-20T17:27:14.844Z,772
2022-09-20T17:28:58.547Z,774
2022-09-20T17:30:42.245Z,775
2022-09-20T17:32:25.930Z,775
2022-09-20T17:34:09.649Z,775
2022-09-20T17:35:53.334Z,774
2022-09-20T17:37:37.030Z,775
2022-09-20T17:39:20.730Z,774
2022-09-20T17:41:04.513Z,774
2022-09-20T17:42:48.138Z,774
2022-09-20T17:44:31.830Z,774
2022-09-20T17:46:15.589Z,774
2022-09-20T17:47:59.256Z,774
2022-09-20T17:49:42.953Z,774
2022-09-20T17:51:26.653Z,774
2022-09-20T17:53:10.381Z,775
2022-09-20T17:54:54.068Z,775
2022-09-20T17:56:37.767Z,775
2022-09-20T17:58:21.457Z,775
2022-09-20T18:00:05.235Z,775
2022-09-20T18:01:48.865Z,774
2022-09-20T18:03:32.566Z,774
2022-09-20T18:05:16.256Z,774
2022-09-20T18:06:59.965Z,774
2022-09-20T18:08:43.663Z,774
2022-09-20T18:10:27.438Z,774
2022-09-20T18:12:11.171Z,775
2022-09-20T18:13:54.767Z,775
2022-09-20T18:15:38.471Z,775
2022-09-20T18:17:22.172Z,774
2022-09-20T18:19:05.961Z,774
2022-09-20T18:20:49.580Z,774
2022-09-20T18:22:33.284Z,774
2022-09-20T18:24:17.010Z,774
2022-09-20T18:26:00.709Z,774
2022-09-20T18:27:44.390Z,774
2022-09-20T18:29:28.098Z,774
2022-09-20T18:31:11.808Z,1
2022-09-20T18:32:55.517Z,1
2022-09-20T18:34:39.210Z,2
2022-09-20T18:36:22.942Z,1
2022-09-20T18:38:06.609Z,1
2022-09-20T18:39:50.327Z,1
2022-09-20T18:41:34.004Z,1
2022-09-20T18:43:17.724Z,2
2022-09-20T18:45:01.427Z,1
2022-09-20T18:46:45.184Z,1
2022-09-20T18:48:28.864Z,2
2022-09-20T18:50:12.589Z,2
2022-09-20T18:51:56.233Z,1
2022-09-20T18:53:39.945Z,1
2022-09-20T18:55:23.684Z,1
2022-09-20T18:57:07.403Z,1
2022-09-20T18:58:51.050Z,2
2022-09-20T19:00:34.822Z,2
2022-09-20T19:02:18.459Z,2
2022-09-20T19:04:02.158Z,2
2022-09-20T19:05:45.848Z,2
2022-09-20T19:07:29.551Z,3
2022-09-20T19:09:13.252Z,3
2022-09-20T19:10:56.950Z,3
2022-09-20T19:12:40.633Z,2
2022-09-20T19:14:24.367Z,2
2022-09-20T19:16:08.114Z,2
2022-09-20T19:17:51.758Z,3
2022-09-20T19:19:35.452Z,2
2022-09-20T19:21:19.165Z,2
2022-09-20T19:23:02.861Z,2
2022-09-20T19:24:46.574Z,3
2022-09-20T19:26:30.275Z,3
2022-09-20T19:28:13.968Z,2
2022-09-20T19:29:57.671Z,2
2022-09-20T19:31:41.394Z,3
2022-09-20T19:33:25.084Z,2
2022-09-20T19:35:08.782Z,3
2022-09-20T19:36:52.489Z,3
2022-09-20T19:38:36.224Z,2
2022-09-20T19:40:19.869Z,3
2022-09-20T19:42:03.581Z,3
2022-09-20T19:43:47.283Z,3
2022-09-20T19:45:31.008Z,2
2022-09-20T19:47:14.670Z,2
2022-09-20T19:48:58.391Z,2
2022-09-20T19:50:42.179Z,3
2022-09-20T19:52:25.842Z,2
2022-09-20T19:54:09.185Z,2
2022-09-20T19:55:52.893Z,3
2022-09-20T19:57:36.598Z,2
2022-09-20T19:59:20.294Z,2
2022-09-20T20:01:04.006Z,3
2022-09-20T20:02:47.705Z,3
2022-09-20T20:04:31.476Z,3
2022-09-20T20:06:15.143Z,3
2022-09-20T20:07:58.810Z,3
2022-09-20T20:09:42.508Z,3
2022-09-20T20:11:26.210Z,2
2022-09-20T20:13:09.917Z,3
2022-09-20T20:14:53.694Z,2
2022-09-20T20:16:37.323Z,2
2022-09-20T20:18:21.022Z,2
2022-09-20T20:20:04.731Z,3
2022-09-20T20:21:48.431Z,3
2022-09-20T20:23:32.110Z,2
2022-09-20T20:25:15.818Z,3
2022-09-20T20:26:59.531Z,3
2022-09-20T20:28:43.234Z,2
2022-09-20T20:30:26.920Z,2
2022-09-20T20:32:10.649Z,3
2022-09-20T20:33:54.336Z,2
2022-09-20T20:35:38.060Z,3
2022-09-20T20:37:21.801Z,2
2022-09-20T20:39:05.430Z,3
2022-09-20T20:40:49.174Z,2
2022-09-20T20:42:32.885Z,3
2022-09-20T20:44:16.581Z,3
2022-09-20T20:46:00.245Z,0
2022-09-20T20:47:43.946Z,2
2022-09-20T20:49:27.676Z,3
2022-09-20T20:51:11.345Z,2
2022-09-20T20:52:55.047Z,2
2022-09-20T20:54:38.755Z,3
2022-09-20T20:56:22.483Z,3
2022-09-20T20:58:06.181Z,3
2022-09-20T20:59:49.857Z,2
2022-09-20T21:01:33.574Z,2
2022-09-20T21:03:17.271Z,2
2022-09-20T21:05:00.985Z,2
2022-09-20T21:06:44.669Z,3
2022-09-20T21:08:28.364Z,3
2022-09-20T21:10:12.113Z,3
2022-09-20T21:11:55.783Z,3
2022-09-20T21:13:39.481Z,3
2022-09-20T21:15:23.174Z,3
2022-09-20T21:17:06.896Z,2
2022-09-20T21:18:50.583Z,2
2022-09-20T21:20:34.311Z,3
2022-09-20T21:22:17.987Z,3
2022-09-20T21:24:01.689Z,3
2022-09-20T21:25:45.407Z,3
2022-09-20T21:27:29.138Z,3
2022-09-20T21:29:12.803Z,4
2022-09-20T21:30:56.495Z,3
2022-09-20T21:32:40.214Z,3
2022-09-20T21:34:23.923Z,3
2022-09-20T21:36:07.603Z,2
2022-09-20T21:37:51.303Z,2
2022-09-20T21:39:35.043Z,2
2022-09-20T21:41:18.708Z,3
2022-09-20T21:43:02.422Z,3
2022-09-20T21:44:46.150Z,2
2022-09-20T21:46:29.827Z,3
2022-09-20T21:48:13.516Z,3
2022-09-20T21:49:57.221Z,2
2022-09-20T21:51:40.929Z,2
2022-09-20T21:53:24.625Z,2
2022-09-20T21:55:08.340Z,3
2022-09-20T21:56:52.027Z,3
2022-09-20T21:58:35.754Z,3
2022-09-20T22:00:19.440Z,3
2022-09-20T22:02:03.139Z,1
2022-09-20T22:03:46.879Z,1
2022-09-20T22:05:30.541Z,1
2022-09-20T22:07:13.935Z,1
2022-09-20T22:08:57.704Z,1
2022-09-20T22:10:41.336Z,1
2022-09-20T22:12:25.057Z,1
2022-09-20T22:14:08.739Z,1
2022-09-20T22:15:52.436Z,0
2022-09-20T22:17:36.152Z,0
2022-09-20T22:19:19.852Z,0
2022-09-20T22:21:03.561Z,1
2022-09-20T22:22:47.252Z,0
2022-09-20T22:24:30.955Z,1
2022-09-20T22:26:14.657Z,0
2022-09-20T22:27:58.383Z,0
2022-09-20T22:29:42.060Z,1
2022-09-20T22:31:25.770Z,0
2022-09-20T22:33:09.469Z,0
2022-09-20T22:34:53.226Z,0
2022-09-20T22:36:36.863Z,0
2022-09-20T22:38:20.571Z,0
2022-09-20T22:40:04.286Z,1
2022-09-20T22:41:47.989Z,0
2022-09-20T22:43:31.659Z,0
2022-09-20T22:45:15.384Z,0
2022-09-20T22:46:59.067Z,0
2022-09-20T22:48:42.792Z,1
2022-09-20T22:50:26.471Z,1
2022-09-20T22:52:10.200Z,0
2022-09-20T22:53:53.883Z,0
2022-09-20T22:55:37.584Z,1
2022-09-20T22:57:21.280Z,0
2022-09-20T22:59:04.986Z,0
2022-09-20T23:00:48.690Z,0
2022-09-20T23:02:32.406Z,0
2022-09-20T23:04:16.107Z,0
2022-09-20T23:05:59.805Z,0
2022-09-20T23:07:43.554Z,0
2022-09-20T23:09:27.218Z,0
2022-09-20T23:11:10.910Z,0
2022-09-20T23:12:54.596Z,0
2022-09-20T23:14:38.315Z,1
2022-09-20T23:16:22.013Z,0
2022-09-20T23:18:05.723Z,0
2022-09-20T23:19:49.404Z,0
2022-09-20T23:21:33.128Z,0
2022-09-20T23:23:16.824Z,0
2022-09-20T23:25:00.526Z,0
2022-09-20T23:26:44.237Z,1
2022-09-20T23:28:27.914Z,0
2022-09-20T23:30:11.635Z,0
2022-09-20T23:31:55.334Z,0
2022-09-20T23:33:39.027Z,0
2022-09-20T23:35:22.725Z,0
2022-09-20T23:37:06.434Z,0
2022-09-20T23:38:50.146Z,0
2022-09-20T23:40:33.838Z,0
2022-09-20T23:42:17.528Z,0
2022-09-20T23:45:44.954Z,0
2022-09-20T23:47:28.652Z,0
2022-09-20T23:49:12.347Z,1
2022-09-20T23:50:56.045Z,0
2022-09-20T23:52:39.758Z,0
2022-09-20T23:54:23.456Z,0
2022-09-20T23:56:07.150Z,0
2022-09-20T23:57:50.861Z,0
2022-09-20T23:59:34.551Z,0
